UGSB/BUS METAR and TAF weather

Enter ICAO airport designator
Station Type Date Time Source
UGSB METAR 2021/09/16 11:30 UTC NOAA

UGSB 161130Z 20008KT 8000 -SHRA SCT009 BKN018CB 21/20 Q1012 R13/29//55 NOSIG


Station Type Date Time Source
UGSB Decoded METAR 2021/09/16 11:30 UTC NOAA

Station name not available
Sep 16, 2021 - 07:30 AM EDT / 2021.09.16 1130 UTC
Wind: from the SSW (200 degrees) at 9 MPH (8 KT):0
Visibility: 4 mile(s):0
Sky conditions: mostly cloudy
Weather: light rain showers; Cumulonimbus clouds observed
Temperature: 69 F (21 C)
Dew Point: 68 F (20 C)
Relative Humidity: 94%
Pressure (altimeter): 29.88 in. Hg (1012 hPa)
ob: UGSB 161130Z 20008KT 8000 -SHRA SCT009 BKN018CB 21/20 Q1012 R13/29//55 NOSIG
cycle: 11

Station Type Date Time Source
UGSB TAF 2021/09/16 12:06 UTC NOAA

TAF UGSB 161100Z 1612/1712 23012KT 7000 -SHRA SCT012 BKN023CB TX23/1612Z TN19/1622Z
TEMPO 1612/1618 23015G25KT 3000 TSRA BKN006 OVC015CB
TEMPO 1618/1706 23022G32KT 3000 TSRA BKN006 OVC015CB

Example: see airport list